sensor_id;sensor_type;location;lat;lon;timestamp;temperature;humidity
4245;DHT22;2136;48.502;9.194;2023-04-15T00:00:06;6.70;64.80
4245;DHT22;2136;48.502;9.194;2023-04-15T00:02:33;6.80;64.60
4245;DHT22;2136;48.502;9.194;2023-04-15T00:05:00;6.70;63.60
4245;DHT22;2136;48.502;9.194;2023-04-15T00:07:27;6.70;63.10
4245;DHT22;2136;48.502;9.194;2023-04-15T00:09:54;6.70;62.70
4245;DHT22;2136;48.502;9.194;2023-04-15T00:12:23;6.60;62.20
4245;DHT22;2136;48.502;9.194;2023-04-15T00:14:50;6.60;62.00
4245;DHT22;2136;48.502;9.194;2023-04-15T00:17:17;6.50;61.90
4245;DHT22;2136;48.502;9.194;2023-04-15T00:19:44;6.40;62.00
4245;DHT22;2136;48.502;9.194;2023-04-15T00:22:11;6.30;63.20
4245;DHT22;2136;48.502;9.194;2023-04-15T00:24:38;6.30;63.20
4245;DHT22;2136;48.502;9.194;2023-04-15T00:27:05;6.20;63.40
4245;DHT22;2136;48.502;9.194;2023-04-15T00:29:33;6.20;63.90
4245;DHT22;2136;48.502;9.194;2023-04-15T00:32:00;6.20;64.20
4245;DHT22;2136;48.502;9.194;2023-04-15T00:34:27;6.20;64.40
4245;DHT22;2136;48.502;9.194;2023-04-15T00:36:54;6.20;64.90
4245;DHT22;2136;48.502;9.194;2023-04-15T00:39:21;6.20;65.30
4245;DHT22;2136;48.502;9.194;2023-04-15T00:41:48;6.20;65.80
4245;DHT22;2136;48.502;9.194;2023-04-15T00:44:15;6.20;66.20
4245;DHT22;2136;48.502;9.194;2023-04-15T00:46:44;6.10;66.20
4245;DHT22;2136;48.502;9.194;2023-04-15T00:49:12;6.20;66.50
4245;DHT22;2136;48.502;9.194;2023-04-15T00:51:39;6.10;66.30
4245;DHT22;2136;48.502;9.194;2023-04-15T00:54:06;6.10;66.20
4245;DHT22;2136;48.502;9.194;2023-04-15T00:56:34;6.10;67.20
4245;DHT22;2136;48.502;9.194;2023-04-15T00:59:03;6.10;66.70
4245;DHT22;2136;48.502;9.194;2023-04-15T01:01:32;6.00;66.80
4245;DHT22;2136;48.502;9.194;2023-04-15T01:04:01;6.00;67.00
4245;DHT22;2136;48.502;9.194;2023-04-15T01:06:29;5.90;67.10
4245;DHT22;2136;48.502;9.194;2023-04-15T01:08:57;5.90;67.70
4245;DHT22;2136;48.502;9.194;2023-04-15T01:11:24;5.90;68.10
4245;DHT22;2136;48.502;9.194;2023-04-15T01:13:51;5.90;68.40
4245;DHT22;2136;48.502;9.194;2023-04-15T01:16:18;5.90;68.40
4245;DHT22;2136;48.502;9.194;2023-04-15T01:18:45;5.90;68.50
4245;DHT22;2136;48.502;9.194;2023-04-15T01:21:13;5.90;68.60
4245;DHT22;2136;48.502;9.194;2023-04-15T01:23:40;5.80;68.60
4245;DHT22;2136;48.502;9.194;2023-04-15T01:26:11;5.80;68.80
4245;DHT22;2136;48.502;9.194;2023-04-15T01:28:38;5.80;68.90
4245;DHT22;2136;48.502;9.194;2023-04-15T01:31:06;5.90;68.40
4245;DHT22;2136;48.502;9.194;2023-04-15T01:33:33;5.80;68.30
4245;DHT22;2136;48.502;9.194;2023-04-15T01:36:01;5.80;68.30
4245;DHT22;2136;48.502;9.194;2023-04-15T01:38:29;5.80;69.40
4245;DHT22;2136;48.502;9.194;2023-04-15T01:40:56;5.80;68.80
4245;DHT22;2136;48.502;9.194;2023-04-15T01:43:25;5.80;68.60
4245;DHT22;2136;48.502;9.194;2023-04-15T01:45:52;5.80;68.30
4245;DHT22;2136;48.502;9.194;2023-04-15T01:48:19;5.70;68.30
4245;DHT22;2136;48.502;9.194;2023-04-15T01:50:46;5.70;68.00
4245;DHT22;2136;48.502;9.194;2023-04-15T01:53:13;5.70;68.00
4245;DHT22;2136;48.502;9.194;2023-04-15T01:55:40;5.70;68.20
4245;DHT22;2136;48.502;9.194;2023-04-15T01:58:07;5.90;68.60
4245;DHT22;2136;48.502;9.194;2023-04-15T02:00:35;5.70;67.90
4245;DHT22;2136;48.502;9.194;2023-04-15T02:03:02;5.70;67.90
4245;DHT22;2136;48.502;9.194;2023-04-15T02:05:29;5.60;67.60
4245;DHT22;2136;48.502;9.194;2023-04-15T02:07:56;5.60;67.50
4245;DHT22;2136;48.502;9.194;2023-04-15T02:10:23;5.50;67.90
4245;DHT22;2136;48.502;9.194;2023-04-15T02:12:50;5.50;68.10
4245;DHT22;2136;48.502;9.194;2023-04-15T02:15:17;5.50;68.30
4245;DHT22;2136;48.502;9.194;2023-04-15T02:17:45;5.50;68.50
4245;DHT22;2136;48.502;9.194;2023-04-15T02:20:15;5.40;68.60
4245;DHT22;2136;48.502;9.194;2023-04-15T02:22:42;5.40;68.60
4245;DHT22;2136;48.502;9.194;2023-04-15T02:25:09;5.40;68.80
4245;DHT22;2136;48.502;9.194;2023-04-15T02:27:36;5.40;68.50
4245;DHT22;2136;48.502;9.194;2023-04-15T02:30:03;5.30;68.40
4245;DHT22;2136;48.502;9.194;2023-04-15T02:32:31;5.40;68.40
4245;DHT22;2136;48.502;9.194;2023-04-15T02:35:02;5.30;68.20
4245;DHT22;2136;48.502;9.194;2023-04-15T02:37:31;5.30;68.30
4245;DHT22;2136;48.502;9.194;2023-04-15T02:40:01;5.30;68.20
4245;DHT22;2136;48.502;9.194;2023-04-15T02:42:29;5.30;68.00
4245;DHT22;2136;48.502;9.194;2023-04-15T02:44:56;5.30;67.70
4245;DHT22;2136;48.502;9.194;2023-04-15T02:47:23;5.30;67.40
4245;DHT22;2136;48.502;9.194;2023-04-15T02:49:50;5.20;67.10
4245;DHT22;2136;48.502;9.194;2023-04-15T02:52:18;5.20;67.10
4245;DHT22;2136;48.502;9.194;2023-04-15T02:54:45;5.10;67.30
4245;DHT22;2136;48.502;9.194;2023-04-15T02:57:11;5.20;67.50
4245;DHT22;2136;48.502;9.194;2023-04-15T02:59:38;5.10;68.20
4245;DHT22;2136;48.502;9.194;2023-04-15T03:02:05;5.00;67.80
4245;DHT22;2136;48.502;9.194;2023-04-15T03:04:33;4.90;68.30
4245;DHT22;2136;48.502;9.194;2023-04-15T03:07:00;4.90;68.80
4245;DHT22;2136;48.502;9.194;2023-04-15T03:09:28;5.00;69.50
4245;DHT22;2136;48.502;9.194;2023-04-15T03:11:55;5.00;69.60
4245;DHT22;2136;48.502;9.194;2023-04-15T03:14:21;4.90;69.80
4245;DHT22;2136;48.502;9.194;2023-04-15T03:16:48;4.70;69.70
4245;DHT22;2136;48.502;9.194;2023-04-15T03:19:16;4.70;70.10
4245;DHT22;2136;48.502;9.194;2023-04-15T03:21:43;4.70;70.50
4245;DHT22;2136;48.502;9.194;2023-04-15T03:24:10;4.80;70.80
4245;DHT22;2136;48.502;9.194;2023-04-15T03:26:38;4.70;70.90
4245;DHT22;2136;48.502;9.194;2023-04-15T03:29:05;4.60;71.00
4245;DHT22;2136;48.502;9.194;2023-04-15T03:31:32;4.80;71.50
4245;DHT22;2136;48.502;9.194;2023-04-15T03:33:58;4.70;71.30
4245;DHT22;2136;48.502;9.194;2023-04-15T03:36:29;4.60;71.20
4245;DHT22;2136;48.502;9.194;2023-04-15T03:38:57;4.60;71.50
4245;DHT22;2136;48.502;9.194;2023-04-15T03:41:24;4.60;71.60
4245;DHT22;2136;48.502;9.194;2023-04-15T03:43:52;4.70;72.00
4245;DHT22;2136;48.502;9.194;2023-04-15T03:46:19;4.70;72.20
4245;DHT22;2136;48.502;9.194;2023-04-15T03:48:46;4.70;72.40
4245;DHT22;2136;48.502;9.194;2023-04-15T03:51:13;4.70;72.80
4245;DHT22;2136;48.502;9.194;2023-04-15T03:53:40;4.50;72.70
4245;DHT22;2136;48.502;9.194;2023-04-15T03:56:07;4.70;73.10
4245;DHT22;2136;48.502;9.194;2023-04-15T03:58:33;4.70;73.30
4245;DHT22;2136;48.502;9.194;2023-04-15T04:01:02;4.50;73.40
4245;DHT22;2136;48.502;9.194;2023-04-15T04:03:28;4.70;73.40
4245;DHT22;2136;48.502;9.194;2023-04-15T04:05:55;4.50;73.20
4245;DHT22;2136;48.502;9.194;2023-04-15T04:08:22;4.50;73.20
4245;DHT22;2136;48.502;9.194;2023-04-15T04:10:49;4.70;73.60
4245;DHT22;2136;48.502;9.194;2023-04-15T04:13:15;4.60;73.50
4245;DHT22;2136;48.502;9.194;2023-04-15T04:15:42;4.50;73.60
4245;DHT22;2136;48.502;9.194;2023-04-15T04:18:10;4.50;73.80
4245;DHT22;2136;48.502;9.194;2023-04-15T04:20:37;4.60;73.80
4245;DHT22;2136;48.502;9.194;2023-04-15T04:23:04;4.50;73.70
4245;DHT22;2136;48.502;9.194;2023-04-15T04:25:31;4.50;73.40
4245;DHT22;2136;48.502;9.194;2023-04-15T04:27:58;4.70;73.20
4245;DHT22;2136;48.502;9.194;2023-04-15T04:30:24;4.50;72.70
4245;DHT22;2136;48.502;9.194;2023-04-15T04:32:51;4.60;72.60
4245;DHT22;2136;48.502;9.194;2023-04-15T04:35:19;4.50;72.80
4245;DHT22;2136;48.502;9.194;2023-04-15T04:37:47;4.40;72.80
4245;DHT22;2136;48.502;9.194;2023-04-15T04:40:14;4.50;72.60
4245;DHT22;2136;48.502;9.194;2023-04-15T04:42:41;4.40;72.70
4245;DHT22;2136;48.502;9.194;2023-04-15T04:45:08;4.40;73.00
4245;DHT22;2136;48.502;9.194;2023-04-15T04:47:35;4.40;72.70
4245;DHT22;2136;48.502;9.194;2023-04-15T04:50:02;4.40;72.50
4245;DHT22;2136;48.502;9.194;2023-04-15T04:52:30;4.30;73.30
4245;DHT22;2136;48.502;9.194;2023-04-15T04:54:57;4.30;74.00
4245;DHT22;2136;48.502;9.194;2023-04-15T04:57:24;4.30;74.10
4245;DHT22;2136;48.502;9.194;2023-04-15T04:59:51;4.30;74.30
4245;DHT22;2136;48.502;9.194;2023-04-15T05:02:18;4.40;74.70
4245;DHT22;2136;48.502;9.194;2023-04-15T05:04:45;4.40;74.60
4245;DHT22;2136;48.502;9.194;2023-04-15T05:07:11;4.40;74.50
4245;DHT22;2136;48.502;9.194;2023-04-15T05:09:39;4.40;74.20
4245;DHT22;2136;48.502;9.194;2023-04-15T05:12:06;4.40;73.90
4245;DHT22;2136;48.502;9.194;2023-04-15T05:14:39;4.50;73.90
4245;DHT22;2136;48.502;9.194;2023-04-15T05:17:06;4.50;73.80
4245;DHT22;2136;48.502;9.194;2023-04-15T05:19:33;4.50;73.50
4245;DHT22;2136;48.502;9.194;2023-04-15T05:22:00;4.50;73.20
4245;DHT22;2136;48.502;9.194;2023-04-15T05:24:26;4.70;73.10
4245;DHT22;2136;48.502;9.194;2023-04-15T05:26:55;4.80;72.80
4245;DHT22;2136;48.502;9.194;2023-04-15T05:29:21;4.70;72.70
4245;DHT22;2136;48.502;9.194;2023-04-15T05:31:48;4.60;72.50
4245;DHT22;2136;48.502;9.194;2023-04-15T05:34:15;4.60;72.10
4245;DHT22;2136;48.502;9.194;2023-04-15T05:36:42;4.70;72.10
4245;DHT22;2136;48.502;9.194;2023-04-15T05:39:09;4.90;72.70
4245;DHT22;2136;48.502;9.194;2023-04-15T05:41:36;4.80;72.50
4245;DHT22;2136;48.502;9.194;2023-04-15T05:44:05;4.90;72.50
4245;DHT22;2136;48.502;9.194;2023-04-15T05:46:31;4.80;71.70
4245;DHT22;2136;48.502;9.194;2023-04-15T05:48:58;5.10;71.90
4245;DHT22;2136;48.502;9.194;2023-04-15T05:51:25;5.00;71.60
4245;DHT22;2136;48.502;9.194;2023-04-15T05:53:52;5.00;71.10
4245;DHT22;2136;48.502;9.194;2023-04-15T05:56:19;5.10;70.80
4245;DHT22;2136;48.502;9.194;2023-04-15T05:58:46;5.20;70.40
4245;DHT22;2136;48.502;9.194;2023-04-15T06:01:14;5.20;70.10
4245;DHT22;2136;48.502;9.194;2023-04-15T06:03:41;5.30;70.00
4245;DHT22;2136;48.502;9.194;2023-04-15T06:06:09;5.30;70.00
4245;DHT22;2136;48.502;9.194;2023-04-15T06:08:36;5.50;69.90
4245;DHT22;2136;48.502;9.194;2023-04-15T06:11:02;5.60;69.60
4245;DHT22;2136;48.502;9.194;2023-04-15T06:13:30;5.70;69.30
4245;DHT22;2136;48.502;9.194;2023-04-15T06:15:57;5.80;69.60
4245;DHT22;2136;48.502;9.194;2023-04-15T06:18:25;5.80;68.40
4245;DHT22;2136;48.502;9.194;2023-04-15T06:20:52;5.90;68.30
4245;DHT22;2136;48.502;9.194;2023-04-15T06:23:19;6.00;68.20
4245;DHT22;2136;48.502;9.194;2023-04-15T06:25:46;6.10;68.10
4245;DHT22;2136;48.502;9.194;2023-04-15T06:28:13;6.10;67.90
4245;DHT22;2136;48.502;9.194;2023-04-15T06:30:39;6.30;67.50
4245;DHT22;2136;48.502;9.194;2023-04-15T06:33:06;6.30;67.10
4245;DHT22;2136;48.502;9.194;2023-04-15T06:35:36;6.40;66.80
4245;DHT22;2136;48.502;9.194;2023-04-15T06:38:03;6.60;66.90
4245;DHT22;2136;48.502;9.194;2023-04-15T06:40:30;6.80;67.00
4245;DHT22;2136;48.502;9.194;2023-04-15T06:42:57;7.20;67.10
4245;DHT22;2136;48.502;9.194;2023-04-15T06:45:24;7.20;66.50
4245;DHT22;2136;48.502;9.194;2023-04-15T06:47:51;7.40;65.80
4245;DHT22;2136;48.502;9.194;2023-04-15T06:50:18;7.50;65.50
4245;DHT22;2136;48.502;9.194;2023-04-15T06:52:46;7.60;64.80
4245;DHT22;2136;48.502;9.194;2023-04-15T06:55:13;7.80;64.90
4245;DHT22;2136;48.502;9.194;2023-04-15T06:57:40;7.80;63.30
4245;DHT22;2136;48.502;9.194;2023-04-15T07:00:08;7.90;62.70
4245;DHT22;2136;48.502;9.194;2023-04-15T07:02:35;7.90;62.30
4245;DHT22;2136;48.502;9.194;2023-04-15T07:05:02;7.90;62.00
4245;DHT22;2136;48.502;9.194;2023-04-15T07:07:29;8.00;62.00
4245;DHT22;2136;48.502;9.194;2023-04-15T07:09:57;8.10;61.70
4245;DHT22;2136;48.502;9.194;2023-04-15T07:12:26;8.20;61.60
4245;DHT22;2136;48.502;9.194;2023-04-15T07:14:53;8.30;61.60
4245;DHT22;2136;48.502;9.194;2023-04-15T07:17:20;8.40;61.20
4245;DHT22;2136;48.502;9.194;2023-04-15T07:19:47;8.50;61.00
4245;DHT22;2136;48.502;9.194;2023-04-15T07:22:14;8.60;60.80
4245;DHT22;2136;48.502;9.194;2023-04-15T07:24:40;8.60;60.30
4245;DHT22;2136;48.502;9.194;2023-04-15T07:27:09;8.70;60.00
4245;DHT22;2136;48.502;9.194;2023-04-15T07:29:36;9.00;60.00
4245;DHT22;2136;48.502;9.194;2023-04-15T07:32:03;9.00;59.70
4245;DHT22;2136;48.502;9.194;2023-04-15T07:34:29;9.10;59.60
4245;DHT22;2136;48.502;9.194;2023-04-15T07:36:57;9.30;60.00
4245;DHT22;2136;48.502;9.194;2023-04-15T07:39:23;9.70;59.80
4245;DHT22;2136;48.502;9.194;2023-04-15T07:41:50;9.80;59.40
4245;DHT22;2136;48.502;9.194;2023-04-15T07:44:19;10.00;58.30
4245;DHT22;2136;48.502;9.194;2023-04-15T07:46:46;10.20;58.00
4245;DHT22;2136;48.502;9.194;2023-04-15T07:49:13;10.40;57.70
4245;DHT22;2136;48.502;9.194;2023-04-15T07:51:40;10.60;57.60
4245;DHT22;2136;48.502;9.194;2023-04-15T07:54:07;10.80;57.30
4245;DHT22;2136;48.502;9.194;2023-04-15T07:56:34;11.00;56.80
4245;DHT22;2136;48.502;9.194;2023-04-15T07:59:01;11.20;56.50
4245;DHT22;2136;48.502;9.194;2023-04-15T08:01:31;11.40;56.20
4245;DHT22;2136;48.502;9.194;2023-04-15T08:03:58;11.70;55.70
4245;DHT22;2136;48.502;9.194;2023-04-15T08:06:25;11.90;55.20
4245;DHT22;2136;48.502;9.194;2023-04-15T08:08:53;12.10;54.90
4245;DHT22;2136;48.502;9.194;2023-04-15T08:11:20;12.20;54.60
4245;DHT22;2136;48.502;9.194;2023-04-15T08:13:48;12.40;54.80
4245;DHT22;2136;48.502;9.194;2023-04-15T08:16:18;12.70;54.50
4245;DHT22;2136;48.502;9.194;2023-04-15T08:18:47;12.90;53.80
4245;DHT22;2136;48.502;9.194;2023-04-15T08:21:15;13.20;53.00
4245;DHT22;2136;48.502;9.194;2023-04-15T08:23:42;13.30;53.00
4245;DHT22;2136;48.502;9.194;2023-04-15T08:26:09;13.60;52.60
4245;DHT22;2136;48.502;9.194;2023-04-15T08:28:38;13.70;51.70
4245;DHT22;2136;48.502;9.194;2023-04-15T08:31:05;13.90;51.50
4245;DHT22;2136;48.502;9.194;2023-04-15T08:33:32;14.20;50.60
4245;DHT22;2136;48.502;9.194;2023-04-15T08:36:00;14.60;50.40
4245;DHT22;2136;48.502;9.194;2023-04-15T08:38:27;14.80;49.50
4245;DHT22;2136;48.502;9.194;2023-04-15T08:40:55;15.10;49.40
4245;DHT22;2136;48.502;9.194;2023-04-15T08:43:27;15.40;48.90
4245;DHT22;2136;48.502;9.194;2023-04-15T08:45:55;15.70;48.70
4245;DHT22;2136;48.502;9.194;2023-04-15T08:48:24;16.00;48.40
4245;DHT22;2136;48.502;9.194;2023-04-15T08:50:54;16.30;48.20
4245;DHT22;2136;48.502;9.194;2023-04-15T08:53:23;16.90;47.30
4245;DHT22;2136;48.502;9.194;2023-04-15T08:55:51;17.40;46.80
4245;DHT22;2136;48.502;9.194;2023-04-15T08:58:18;18.10;46.50
4245;DHT22;2136;48.502;9.194;2023-04-15T09:00:45;18.70;45.30
4245;DHT22;2136;48.502;9.194;2023-04-15T09:03:13;19.00;45.00
4245;DHT22;2136;48.502;9.194;2023-04-15T09:05:40;19.20;44.00
4245;DHT22;2136;48.502;9.194;2023-04-15T09:08:07;19.40;43.40
4245;DHT22;2136;48.502;9.194;2023-04-15T09:10:36;19.70;42.00
4245;DHT22;2136;48.502;9.194;2023-04-15T09:13:02;20.20;42.30
4245;DHT22;2136;48.502;9.194;2023-04-15T09:15:30;20.70;41.80
4245;DHT22;2136;48.502;9.194;2023-04-15T09:17:58;20.90;40.90
4245;DHT22;2136;48.502;9.194;2023-04-15T09:20:25;21.20;40.90
4245;DHT22;2136;48.502;9.194;2023-04-15T09:22:52;21.50;40.10
4245;DHT22;2136;48.502;9.194;2023-04-15T09:25:26;21.80;38.60
4245;DHT22;2136;48.502;9.194;2023-04-15T09:27:56;22.40;38.90
4245;DHT22;2136;48.502;9.194;2023-04-15T09:30:23;23.00;37.90
4245;DHT22;2136;48.502;9.194;2023-04-15T09:32:52;23.30;37.40
4245;DHT22;2136;48.502;9.194;2023-04-15T09:35:20;23.40;37.30
4245;DHT22;2136;48.502;9.194;2023-04-15T09:37:47;23.20;37.00
4245;DHT22;2136;48.502;9.194;2023-04-15T09:40:14;22.80;36.10
4245;DHT22;2136;48.502;9.194;2023-04-15T09:42:57;22.30;35.90
4245;DHT22;2136;48.502;9.194;2023-04-15T09:45:25;21.70;36.40
4245;DHT22;2136;48.502;9.194;2023-04-15T09:47:52;21.10;35.90
4245;DHT22;2136;48.502;9.194;2023-04-15T09:50:19;20.60;35.80
4245;DHT22;2136;48.502;9.194;2023-04-15T09:52:46;20.20;37.40
4245;DHT22;2136;48.502;9.194;2023-04-15T09:55:16;20.10;37.70
4245;DHT22;2136;48.502;9.194;2023-04-15T09:57:45;20.20;37.70
4245;DHT22;2136;48.502;9.194;2023-04-15T10:00:14;20.10;37.30
4245;DHT22;2136;48.502;9.194;2023-04-15T10:02:42;20.00;37.00
4245;DHT22;2136;48.502;9.194;2023-04-15T10:05:10;19.90;36.80
4245;DHT22;2136;48.502;9.194;2023-04-15T10:07:37;19.80;36.90
4245;DHT22;2136;48.502;9.194;2023-04-15T10:10:07;19.70;37.00
4245;DHT22;2136;48.502;9.194;2023-04-15T10:12:36;19.70;37.30
4245;DHT22;2136;48.502;9.194;2023-04-15T10:15:04;19.80;37.20
4245;DHT22;2136;48.502;9.194;2023-04-15T10:17:33;19.80;37.00
4245;DHT22;2136;48.502;9.194;2023-04-15T10:20:02;19.80;36.80
4245;DHT22;2136;48.502;9.194;2023-04-15T10:22:30;19.70;36.40
4245;DHT22;2136;48.502;9.194;2023-04-15T10:24:58;20.00;37.00
4245;DHT22;2136;48.502;9.194;2023-04-15T10:27:26;21.40;37.70
4245;DHT22;2136;48.502;9.194;2023-04-15T10:29:54;23.70;36.90
4245;DHT22;2136;48.502;9.194;2023-04-15T10:32:21;25.80;35.40
4245;DHT22;2136;48.502;9.194;2023-04-15T10:34:51;27.10;32.10
4245;DHT22;2136;48.502;9.194;2023-04-15T10:37:32;27.00;30.00
4245;DHT22;2136;48.502;9.194;2023-04-15T10:39:59;26.60;29.10
4245;DHT22;2136;48.502;9.194;2023-04-15T10:42:33;25.90;28.70
4245;DHT22;2136;48.502;9.194;2023-04-15T10:45:00;25.10;29.30
4245;DHT22;2136;48.502;9.194;2023-04-15T10:47:27;24.20;29.80
4245;DHT22;2136;48.502;9.194;2023-04-15T10:50:00;23.50;30.10
4245;DHT22;2136;48.502;9.194;2023-04-15T10:52:28;22.70;30.30
4245;DHT22;2136;48.502;9.194;2023-04-15T10:55:01;22.00;30.80
4245;DHT22;2136;48.502;9.194;2023-04-15T10:57:34;21.30;31.20
4245;DHT22;2136;48.502;9.194;2023-04-15T11:00:09;20.60;32.90
4245;DHT22;2136;48.502;9.194;2023-04-15T11:02:42;20.10;34.40
4245;DHT22;2136;48.502;9.194;2023-04-15T11:05:11;19.70;34.60
4245;DHT22;2136;48.502;9.194;2023-04-15T11:07:40;19.30;33.40
4245;DHT22;2136;48.502;9.194;2023-04-15T11:13:20;19.10;35.40
4245;DHT22;2136;48.502;9.194;2023-04-15T11:15:48;19.60;35.60
4245;DHT22;2136;48.502;9.194;2023-04-15T11:18:17;20.30;35.30
4245;DHT22;2136;48.502;9.194;2023-04-15T11:20:47;21.50;35.60
4245;DHT22;2136;48.502;9.194;2023-04-15T11:23:16;23.10;35.50
4245;DHT22;2136;48.502;9.194;2023-04-15T11:25:43;24.70;34.30
4245;DHT22;2136;48.502;9.194;2023-04-15T11:28:11;25.80;31.70
4245;DHT22;2136;48.502;9.194;2023-04-15T11:30:39;25.70;30.40
4245;DHT22;2136;48.502;9.194;2023-04-15T11:33:07;25.10;29.50
4245;DHT22;2136;48.502;9.194;2023-04-15T11:35:34;24.60;29.40
4245;DHT22;2136;48.502;9.194;2023-04-15T11:38:04;24.20;29.90
4245;DHT22;2136;48.502;9.194;2023-04-15T11:40:31;25.30;32.80
4245;DHT22;2136;48.502;9.194;2023-04-15T11:43:06;26.80;31.70
4245;DHT22;2136;48.502;9.194;2023-04-15T11:45:34;27.30;30.00
4245;DHT22;2136;48.502;9.194;2023-04-15T11:48:05;27.10;29.20
4245;DHT22;2136;48.502;9.194;2023-04-15T11:50:33;26.50;29.20
4245;DHT22;2136;48.502;9.194;2023-04-15T11:53:01;26.10;29.20
4245;DHT22;2136;48.502;9.194;2023-04-15T11:55:30;25.70;29.50
4245;DHT22;2136;48.502;9.194;2023-04-15T11:58:08;25.30;29.20
4245;DHT22;2136;48.502;9.194;2023-04-15T12:00:36;24.90;29.80
4245;DHT22;2136;48.502;9.194;2023-04-15T12:03:23;24.50;30.40
4245;DHT22;2136;48.502;9.194;2023-04-15T12:09:08;23.30;29.50
4245;DHT22;2136;48.502;9.194;2023-04-15T12:11:41;22.60;29.10
4245;DHT22;2136;48.502;9.194;2023-04-15T12:14:20;22.00;29.70
4245;DHT22;2136;48.502;9.194;2023-04-15T12:16:49;21.40;30.00
4245;DHT22;2136;48.502;9.194;2023-04-15T12:19:19;20.80;30.30
4245;DHT22;2136;48.502;9.194;2023-04-15T12:21:48;20.40;31.40
4245;DHT22;2136;48.502;9.194;2023-04-15T12:24:19;20.00;31.90
4245;DHT22;2136;48.502;9.194;2023-04-15T12:26:50;19.70;32.70
4245;DHT22;2136;48.502;9.194;2023-04-15T12:29:17;19.50;32.90
4245;DHT22;2136;48.502;9.194;2023-04-15T12:31:48;19.40;33.40
4245;DHT22;2136;48.502;9.194;2023-04-15T12:34:17;19.30;34.20
4245;DHT22;2136;48.502;9.194;2023-04-15T12:36:44;19.40;34.60
4245;DHT22;2136;48.502;9.194;2023-04-15T12:39:11;19.40;34.70
4245;DHT22;2136;48.502;9.194;2023-04-15T12:41:38;19.40;34.70
4245;DHT22;2136;48.502;9.194;2023-04-15T12:44:07;19.40;34.60
4245;DHT22;2136;48.502;9.194;2023-04-15T12:46:34;19.40;34.60
4245;DHT22;2136;48.502;9.194;2023-04-15T12:49:01;19.40;35.40
4245;DHT22;2136;48.502;9.194;2023-04-15T12:51:28;19.50;35.40
4245;DHT22;2136;48.502;9.194;2023-04-15T12:53:56;19.70;35.90
4245;DHT22;2136;48.502;9.194;2023-04-15T12:56:23;19.80;36.00
4245;DHT22;2136;48.502;9.194;2023-04-15T12:58:50;20.00;35.90
4245;DHT22;2136;48.502;9.194;2023-04-15T13:01:18;20.00;35.30
4245;DHT22;2136;48.502;9.194;2023-04-15T13:03:45;20.00;35.10
4245;DHT22;2136;48.502;9.194;2023-04-15T13:06:12;19.90;34.30
4245;DHT22;2136;48.502;9.194;2023-04-15T13:08:39;19.80;34.00
4245;DHT22;2136;48.502;9.194;2023-04-15T13:11:06;19.70;33.90
4245;DHT22;2136;48.502;9.194;2023-04-15T13:13:33;19.80;33.40
4245;DHT22;2136;48.502;9.194;2023-04-15T13:16:00;19.80;32.00
4245;DHT22;2136;48.502;9.194;2023-04-15T13:18:28;19.70;32.20
4245;DHT22;2136;48.502;9.194;2023-04-15T13:20:55;19.60;33.10
4245;DHT22;2136;48.502;9.194;2023-04-15T13:23:22;19.50;33.70
4245;DHT22;2136;48.502;9.194;2023-04-15T13:25:49;19.40;34.50
4245;DHT22;2136;48.502;9.194;2023-04-15T13:28:16;19.30;36.00
4245;DHT22;2136;48.502;9.194;2023-04-15T13:30:43;19.00;38.10
4245;DHT22;2136;48.502;9.194;2023-04-15T13:33:10;18.80;38.90
4245;DHT22;2136;48.502;9.194;2023-04-15T13:35:39;18.60;39.60
4245;DHT22;2136;48.502;9.194;2023-04-15T13:38:06;18.20;40.30
4245;DHT22;2136;48.502;9.194;2023-04-15T13:40:32;17.90;41.50
4245;DHT22;2136;48.502;9.194;2023-04-15T13:42:59;17.90;41.50
4245;DHT22;2136;48.502;9.194;2023-04-15T13:45:33;17.90;42.60
4245;DHT22;2136;48.502;9.194;2023-04-15T13:48:05;17.90;42.70
4245;DHT22;2136;48.502;9.194;2023-04-15T13:50:32;17.70;42.70
4245;DHT22;2136;48.502;9.194;2023-04-15T13:53:00;17.60;42.80
4245;DHT22;2136;48.502;9.194;2023-04-15T13:55:27;17.50;42.40
4245;DHT22;2136;48.502;9.194;2023-04-15T13:57:55;17.50;42.30
4245;DHT22;2136;48.502;9.194;2023-04-15T14:00:22;17.60;42.40
4245;DHT22;2136;48.502;9.194;2023-04-15T14:02:49;17.80;42.60
4245;DHT22;2136;48.502;9.194;2023-04-15T14:05:16;17.80;42.30
4245;DHT22;2136;48.502;9.194;2023-04-15T14:07:43;17.80;42.10
4245;DHT22;2136;48.502;9.194;2023-04-15T14:10:11;17.70;41.70
4245;DHT22;2136;48.502;9.194;2023-04-15T14:12:38;17.50;41.70
4245;DHT22;2136;48.502;9.194;2023-04-15T14:15:05;17.40;41.80
4245;DHT22;2136;48.502;9.194;2023-04-15T14:17:32;17.30;42.20
4245;DHT22;2136;48.502;9.194;2023-04-15T14:19:59;17.20;41.70
4245;DHT22;2136;48.502;9.194;2023-04-15T14:22:26;17.00;41.70
4245;DHT22;2136;48.502;9.194;2023-04-15T14:24:53;16.90;41.10
4245;DHT22;2136;48.502;9.194;2023-04-15T14:27:22;16.70;41.30
4245;DHT22;2136;48.502;9.194;2023-04-15T14:29:49;16.50;41.40
4245;DHT22;2136;48.502;9.194;2023-04-15T14:32:15;16.20;42.60
4245;DHT22;2136;48.502;9.194;2023-04-15T14:34:42;16.00;43.20
4245;DHT22;2136;48.502;9.194;2023-04-15T14:37:09;15.80;43.30
4245;DHT22;2136;48.502;9.194;2023-04-15T14:39:36;15.70;42.70
4245;DHT22;2136;48.502;9.194;2023-04-15T14:42:03;15.60;42.30
4245;DHT22;2136;48.502;9.194;2023-04-15T14:44:31;15.60;43.00
4245;DHT22;2136;48.502;9.194;2023-04-15T14:46:58;15.50;42.60
4245;DHT22;2136;48.502;9.194;2023-04-15T14:49:25;15.50;43.00
4245;DHT22;2136;48.502;9.194;2023-04-15T14:51:52;15.50;43.50
4245;DHT22;2136;48.502;9.194;2023-04-15T14:54:19;15.40;43.10
4245;DHT22;2136;48.502;9.194;2023-04-15T14:56:45;15.30;43.40
4245;DHT22;2136;48.502;9.194;2023-04-15T14:59:12;15.30;43.20
4245;DHT22;2136;48.502;9.194;2023-04-15T15:01:41;15.20;42.90
4245;DHT22;2136;48.502;9.194;2023-04-15T15:04:09;15.20;43.60
4245;DHT22;2136;48.502;9.194;2023-04-15T15:06:36;15.00;43.30
4245;DHT22;2136;48.502;9.194;2023-04-15T15:09:03;14.90;42.50
4245;DHT22;2136;48.502;9.194;2023-04-15T15:11:30;15.00;41.70
4245;DHT22;2136;48.502;9.194;2023-04-15T15:13:56;14.80;41.20
4245;DHT22;2136;48.502;9.194;2023-04-15T15:16:23;14.70;41.10
4245;DHT22;2136;48.502;9.194;2023-04-15T15:18:52;14.60;39.30
4245;DHT22;2136;48.502;9.194;2023-04-15T15:21:19;14.60;39.00
4245;DHT22;2136;48.502;9.194;2023-04-15T15:23:46;14.70;38.70
4245;DHT22;2136;48.502;9.194;2023-04-15T15:26:13;14.60;38.20
4245;DHT22;2136;48.502;9.194;2023-04-15T15:28:40;14.50;38.60
4245;DHT22;2136;48.502;9.194;2023-04-15T15:31:07;14.40;37.20
4245;DHT22;2136;48.502;9.194;2023-04-15T15:33:34;14.40;37.30
4245;DHT22;2136;48.502;9.194;2023-04-15T15:36:02;14.40;37.50
4245;DHT22;2136;48.502;9.194;2023-04-15T15:38:29;14.40;37.70
4245;DHT22;2136;48.502;9.194;2023-04-15T15:40:56;14.50;37.60
4245;DHT22;2136;48.502;9.194;2023-04-15T15:43:23;14.40;37.70
4245;DHT22;2136;48.502;9.194;2023-04-15T15:45:50;14.30;37.80
4245;DHT22;2136;48.502;9.194;2023-04-15T15:48:20;14.40;38.40
4245;DHT22;2136;48.502;9.194;2023-04-15T15:50:46;14.20;38.10
4245;DHT22;2136;48.502;9.194;2023-04-15T15:53:15;14.20;38.80
4245;DHT22;2136;48.502;9.194;2023-04-15T15:55:45;14.20;39.30
4245;DHT22;2136;48.502;9.194;2023-04-15T15:58:12;14.20;39.70
4245;DHT22;2136;48.502;9.194;2023-04-15T16:00:39;14.10;39.90
4245;DHT22;2136;48.502;9.194;2023-04-15T16:03:06;14.10;40.40
4245;DHT22;2136;48.502;9.194;2023-04-15T16:05:33;14.00;40.90
4245;DHT22;2136;48.502;9.194;2023-04-15T16:08:00;13.90;41.60
4245;DHT22;2136;48.502;9.194;2023-04-15T16:10:28;13.80;41.90
4245;DHT22;2136;48.502;9.194;2023-04-15T16:12:55;13.90;42.40
4245;DHT22;2136;48.502;9.194;2023-04-15T16:15:23;13.90;42.90
4245;DHT22;2136;48.502;9.194;2023-04-15T16:17:50;13.80;43.30